Time;durP1;ratioP1;P1;durP2;ratioP2;P2;SDS_P1;SDS_P2;PMS_P1;PMS_P2;Temp;Humidity;BMP_temperature;BMP_pressure;BME280_temperature;BME280_humidity;BME280_pressure;Samples;Min_cycle;Max_cycle;Signal;HPM_P1;HPM_P2
2022/06/21 00:01:18;;;;;;;7.78;1.60;;;12.10;99.90;;;;;;4978101;28;20407;-71
2022/06/21 00:03:45;;;;;;;5.72;1.80;;;12.10;99.90;;;;;;4978212;28;20052;-71
2022/06/21 00:06:20;;;;;;;6.53;1.88;;;12.10;99.90;;;;;;4962233;28;20054;-70
2022/06/21 00:08:46;;;;;;;8.35;1.77;;;12.10;99.90;;;;;;4978063;28;20061;-70
2022/06/21 00:11:31;;;;;;;7.28;2.05;;;12.00;99.90;;;;;;4977831;28;20502;-71
2022/06/21 00:13:57;;;;;;;6.13;1.67;;;12.10;99.90;;;;;;4977777;28;20035;-71
2022/06/21 00:16:25;;;;;;;8.02;1.50;;;12.00;99.90;;;;;;4977426;28;20048;-71
2022/06/21 00:18:51;;;;;;;8.93;2.58;;;12.00;99.90;;;;;;4977682;28;20042;-71
2022/06/21 00:21:20;;;;;;;6.22;1.98;;;11.90;99.90;;;;;;4978155;28;20046;-71
2022/06/21 00:23:47;;;;;;;6.88;1.52;;;11.90;99.90;;;;;;4977869;28;20054;-71
2022/06/21 00:26:14;;;;;;;3.95;1.40;;;11.80;99.90;;;;;;4978083;28;20068;-71
2022/06/21 00:28:41;;;;;;;7.45;1.92;;;11.70;99.90;;;;;;4977401;28;20042;-71
2022/06/21 00:31:31;;;;;;;8.25;1.90;;;11.70;99.90;;;;;;4977470;28;20494;-71
2022/06/21 00:33:59;;;;;;;6.10;1.58;;;11.70;99.90;;;;;;4977713;28;20495;-71
2022/06/21 00:36:28;;;;;;;9.02;2.35;;;11.60;99.90;;;;;;4994961;28;20048;-71
2022/06/21 00:38:56;;;;;;;4.45;1.42;;;11.60;99.90;;;;;;4977774;28;20049;-70
2022/06/21 00:41:53;;;;;;;6.88;1.70;;;11.50;99.90;;;;;;4977183;28;20454;-71
2022/06/21 00:44:46;;;;;;;5.35;1.90;;;11.50;99.90;;;;;;4977453;28;20065;-70
2022/06/21 00:47:22;;;;;;;6.85;2.17;;;11.50;99.90;;;;;;4977167;28;20467;-71
2022/06/21 00:50:22;;;;;;;8.50;2.17;;;11.40;99.90;;;;;;4977586;28;20042;-71
2022/06/21 00:53:06;;;;;;;8.88;2.25;;;11.40;99.90;;;;;;4977362;28;20097;-71
2022/06/21 00:55:34;;;;;;;5.30;2.00;;;11.40;99.90;;;;;;4977265;28;20042;-71
2022/06/21 00:58:00;;;;;;;7.60;1.67;;;11.30;99.90;;;;;;4976866;28;20105;-70
2022/06/21 01:00:32;;;;;;;5.88;1.40;;;11.30;99.90;;;;;;4977162;28;20046;-71
2022/06/21 01:03:04;;;;;;;4.20;1.90;;;11.20;99.90;;;;;;4976780;28;20046;-71
2022/06/21 01:05:33;;;;;;;4.72;1.90;;;11.20;99.90;;;;;;4976900;28;20483;-70
2022/06/21 01:07:59;;;;;;;3.50;1.45;;;11.20;99.90;;;;;;4976689;28;20550;-70
2022/06/21 01:10:27;;;;;;;1.80;1.08;;;11.20;99.90;;;;;;4994226;28;20053;-71
2022/06/21 01:13:04;;;;;;;3.88;2.10;;;11.10;99.90;;;;;;4960679;28;20097;-71
2022/06/21 01:15:38;;;;;;;4.43;1.90;;;11.10;99.90;;;;;;4976727;28;20038;-70
2022/06/21 01:18:07;;;;;;;3.63;1.70;;;11.10;99.90;;;;;;4976676;28;20038;-70
2022/06/21 01:20:37;;;;;;;7.07;1.80;;;11.10;99.90;;;;;;4976889;28;20088;-71
2022/06/21 01:23:19;;;;;;;8.45;2.15;;;11.10;99.90;;;;;;4976466;28;20097;-71
2022/06/21 01:25:57;;;;;;;4.13;1.52;;;11.10;99.90;;;;;;4976592;28;20042;-71
2022/06/21 01:28:22;;;;;;;5.43;1.75;;;11.10;99.90;;;;;;4975808;28;20042;-70
2022/06/21 01:30:51;;;;;;;5.60;1.60;;;11.10;99.90;;;;;;4976751;28;20092;-71
2022/06/21 01:33:26;;;;;;;4.53;1.52;;;11.00;99.90;;;;;;4976573;28;20125;-71
2022/06/21 01:35:56;;;;;;;5.95;2.17;;;11.00;99.90;;;;;;4976546;28;20046;-71
2022/06/21 01:38:29;;;;;;;6.07;2.10;;;10.90;99.90;;;;;;4976312;28;20577;-70
2022/06/21 01:41:10;;;;;;;5.10;2.22;;;10.90;99.90;;;;;;4976455;28;20042;-71
2022/06/21 01:43:41;;;;;;;3.92;1.70;;;10.90;99.90;;;;;;4976371;28;20046;-71
2022/06/21 01:46:12;;;;;;;4.57;1.77;;;10.90;99.90;;;;;;4976373;28;20474;-70
2022/06/21 01:48:47;;;;;;;5.85;2.10;;;10.80;99.90;;;;;;4976249;28;20503;-70
2022/06/21 01:51:25;;;;;;;6.78;1.95;;;10.80;99.90;;;;;;4976331;28;20391;-71
2022/06/21 01:53:52;;;;;;;2.50;1.40;;;10.80;99.90;;;;;;4976286;28;20051;-71
2022/06/21 01:56:21;;;;;;;11.50;1.67;;;10.60;99.90;;;;;;4976232;28;20510;-71
2022/06/21 01:58:53;;;;;;;5.63;1.75;;;10.60;99.90;;;;;;4976624;28;20074;-70
2022/06/21 02:01:40;;;;;;;12.60;2.55;;;10.60;99.90;;;;;;4977466;28;20125;-71
2022/06/21 02:04:08;;;;;;;2.50;1.80;;;10.40;99.90;;;;;;4960094;28;20384;-71
2022/06/21 02:06:39;;;;;;;5.22;1.80;;;10.30;99.90;;;;;;4976141;28;20042;-71
2022/06/21 02:09:12;;;;;;;4.65;1.67;;;10.30;99.90;;;;;;4975926;28;20057;-70
2022/06/21 02:11:48;;;;;;;2.63;1.65;;;10.30;99.90;;;;;;4976135;28;20113;-71
2022/06/21 02:14:29;;;;;;;3.05;1.48;;;10.40;99.90;;;;;;4976414;28;20050;-71
2022/06/21 02:17:40;;;;;;;4.68;1.30;;;10.40;99.90;;;;;;4959961;28;20043;-70
2022/06/21 02:20:29;;;;;;;3.03;1.10;;;10.40;99.90;;;;;;4917708;29;20044;-70
2022/06/21 02:22:54;;;;;;;2.08;1.13;;;10.30;99.90;;;;;;4917814;29;20126;-71
2022/06/21 02:25:23;;;;;;;3.55;1.30;;;10.30;99.90;;;;;;4917928;29;20159;-71
2022/06/21 02:27:52;;;;;;;3.28;1.67;;;10.30;99.90;;;;;;4918070;29;20043;-71
2022/06/21 02:30:21;;;;;;;3.08;1.42;;;10.30;99.90;;;;;;4917543;29;20051;-71
2022/06/21 02:32:47;;;;;;;4.57;1.38;;;10.30;99.90;;;;;;4902377;29;20052;-71
2022/06/21 02:35:34;;;;;;;6.13;1.80;;;10.20;99.90;;;;;;4933520;29;20138;-71
2022/06/21 02:38:03;;;;;;;4.80;1.98;;;10.30;99.90;;;;;;4917890;29;20513;-70
2022/06/21 02:40:44;;;;;;;4.57;1.45;;;10.20;99.90;;;;;;4934972;29;20052;-71
2022/06/21 02:43:33;;;;;;;2.58;1.65;;;10.20;99.90;;;;;;4920905;29;20052;-71
2022/06/21 02:46:08;;;;;;;3.88;2.00;;;10.20;99.90;;;;;;4904951;29;20142;-70
2022/06/21 02:48:40;;;;;;;5.38;2.20;;;10.30;99.90;;;;;;4921165;29;20489;-71
2022/06/21 02:51:11;;;;;;;5.00;1.98;;;10.20;99.90;;;;;;4958362;28;20065;-71
2022/06/21 02:53:42;;;;;;;5.72;1.92;;;10.20;99.90;;;;;;4979325;28;20093;-71
2022/06/21 02:56:42;;;;;;;2.70;1.35;;;10.20;99.90;;;;;;4979302;28;20141;-73
2022/06/21 02:59:09;;;;;;;4.43;1.98;;;10.20;99.90;;;;;;4965026;28;20111;-72
2022/06/21 03:01:39;;;;;;;3.38;1.80;;;10.20;99.90;;;;;;4962992;28;20080;-73
2022/06/21 03:04:06;;;;;;;3.50;1.85;;;10.20;99.90;;;;;;4979146;28;20042;-73
2022/06/21 03:06:33;;;;;;;5.50;1.98;;;10.10;99.90;;;;;;4979273;28;20038;-72
2022/06/21 03:09:08;;;;;;;216.50;6.65;;;10.00;99.90;;;;;;4979159;28;20121;-72
2022/06/21 03:11:37;;;;;;;215.80;5.80;;;9.90;99.90;;;;;;4963066;28;20509;-73
2022/06/21 03:14:07;;;;;;;5.32;1.58;;;9.80;99.90;;;;;;4995381;28;20517;-72
2022/06/21 03:16:33;;;;;;;5.80;1.35;;;9.70;99.90;;;;;;4978833;28;20042;-73
2022/06/21 03:19:04;;;;;;;26.25;2.67;;;9.70;99.90;;;;;;4978969;28;20133;-71
2022/06/21 03:21:32;;;;;;;3.80;1.42;;;9.80;99.90;;;;;;4978801;28;20038;-71
2022/06/21 03:24:01;;;;;;;13.45;1.95;;;9.70;99.90;;;;;;4978774;28;20442;-71
2022/06/21 03:26:28;;;;;;;12.20;1.67;;;9.70;99.90;;;;;;4978716;28;20045;-71
2022/06/21 03:28:54;;;;;;;3.28;1.65;;;9.60;99.90;;;;;;4978795;28;20429;-73
2022/06/21 03:31:27;;;;;;;2.85;1.70;;;9.60;99.90;;;;;;4978565;28;20042;-71
2022/06/21 03:34:02;;;;;;;2.72;1.77;;;9.60;99.90;;;;;;4979336;28;20493;-73
2022/06/21 03:36:28;;;;;;;5.47;2.00;;;9.70;99.90;;;;;;4978569;28;20077;-72
2022/06/21 03:39:07;;;;;;;5.00;2.35;;;9.70;99.90;;;;;;4978332;28;20070;-72
2022/06/21 03:41:42;;;;;;;2.90;1.80;;;9.70;99.90;;;;;;4978395;28;20042;-72
2022/06/21 03:44:29;;;;;;;3.85;1.73;;;9.70;99.90;;;;;;4962611;28;20108;-72
2022/06/21 03:47:00;;;;;;;3.05;1.67;;;9.80;99.90;;;;;;4962736;28;20120;-72
2022/06/21 03:49:33;;;;;;;3.95;2.03;;;9.90;99.90;;;;;;4978186;28;20042;-72
2022/06/21 03:52:05;;;;;;;1.42;1.23;;;9.80;99.90;;;;;;4977306;28;20097;-72
2022/06/21 03:54:44;;;;;;;3.90;2.13;;;9.70;99.90;;;;;;4978114;28;20494;-72
2022/06/21 03:57:33;;;;;;;4.00;1.70;;;9.70;99.90;;;;;;4978139;28;20034;-72
2022/06/21 04:00:06;;;;;;;3.05;1.92;;;9.70;99.90;;;;;;4977479;28;20054;-72
2022/06/21 04:02:41;;;;;;;3.55;2.25;;;9.70;99.90;;;;;;4978286;28;20130;-73
2022/06/21 04:05:17;;;;;;;2.70;1.80;;;9.70;99.90;;;;;;4978299;28;20060;-72
2022/06/21 04:07:57;;;;;;;2.28;1.85;;;9.70;99.90;;;;;;4977728;28;20133;-72
2022/06/21 04:10:41;;;;;;;4.15;1.80;;;9.80;99.90;;;;;;4977872;28;20038;-72
2022/06/21 04:13:09;;;;;;;4.53;2.42;;;9.80;99.90;;;;;;4977859;28;20046;-72
2022/06/21 04:15:53;;;;;;;2.80;1.90;;;9.80;99.90;;;;;;4977742;28;20569;-72
2022/06/21 04:18:26;;;;;;;3.00;2.10;;;9.90;99.90;;;;;;4977681;28;20579;-72
2022/06/21 04:21:05;;;;;;;3.65;2.75;;;10.00;99.90;;;;;;4977987;28;20137;-72
2022/06/21 04:23:58;;;;;;;3.05;2.42;;;10.10;99.90;;;;;;4977627;28;20125;-72
2022/06/21 04:26:35;;;;;;;4.63;2.35;;;10.10;99.90;;;;;;4974170;28;20086;-72
2022/06/21 04:29:16;;;;;;;3.72;1.83;;;10.10;99.90;;;;;;4961397;28;20093;-72
2022/06/21 04:31:55;;;;;;;3.05;1.75;;;10.20;99.90;;;;;;4977481;28;20469;-72
2022/06/21 04:34:26;;;;;;;1.95;1.73;;;10.20;99.90;;;;;;4977668;28;20030;-72
2022/06/21 04:37:13;;;;;;;2.40;1.70;;;10.10;99.90;;;;;;4961637;28;20054;-72
2022/06/21 04:39:46;;;;;;;3.85;1.80;;;10.10;99.90;;;;;;4977827;28;20049;-72
2022/06/21 04:42:41;;;;;;;5.50;2.92;;;10.10;99.90;;;;;;4977298;28;20129;-72
2022/06/21 04:45:10;;;;;;;3.90;2.10;;;10.20;99.90;;;;;;4975246;28;20046;-72
2022/06/21 04:47:51;;;;;;;3.90;2.00;;;10.20;99.90;;;;;;4977727;28;20099;-72
2022/06/21 04:50:39;;;;;;;5.95;2.38;;;10.40;99.90;;;;;;4977432;28;20120;-72
2022/06/21 04:53:19;;;;;;;4.05;2.17;;;10.50;99.90;;;;;;4977173;28;20093;-72
2022/06/21 04:55:59;;;;;;;5.18;2.40;;;10.60;99.90;;;;;;4960919;28;20498;-72
2022/06/21 04:58:25;;;;;;;6.47;2.70;;;10.60;99.90;;;;;;4976932;28;20042;-72
2022/06/21 05:00:52;;;;;;;6.38;2.50;;;10.70;99.90;;;;;;4976979;28;20506;-72
2022/06/21 05:03:41;;;;;;;5.20;2.65;;;10.80;99.90;;;;;;4977484;28;20048;-75
2022/06/21 05:06:11;;;;;;;8.32;2.88;;;10.80;99.90;;;;;;4976931;28;20054;-75
2022/06/21 05:08:39;;;;;;;7.38;2.90;;;10.80;99.90;;;;;;4976620;28;20114;-75
2022/06/21 05:11:05;;;;;;;6.47;2.92;;;10.90;99.90;;;;;;4977312;28;20427;-75
2022/06/21 05:13:38;;;;;;;11.52;2.72;;;10.90;99.90;;;;;;4976783;28;20048;-75
2022/06/21 05:16:24;;;;;;;6.68;2.97;;;11.00;99.90;;;;;;4976820;28;20034;-75
2022/06/21 05:19:13;;;;;;;9.50;2.90;;;11.10;99.90;;;;;;4960022;28;20407;-75
2022/06/21 05:21:45;;;;;;;7.72;3.22;;;11.20;99.90;;;;;;4975768;28;20058;-75
2022/06/21 05:24:11;;;;;;;7.50;3.10;;;11.30;99.90;;;;;;4976902;28;20045;-75
2022/06/21 05:26:43;;;;;;;6.43;3.30;;;11.40;99.90;;;;;;4960480;28;20453;-75
2022/06/21 05:29:40;;;;;;;7.10;3.28;;;11.60;99.90;;;;;;4976483;28;20046;-75
2022/06/21 05:32:13;;;;;;;7.80;3.65;;;11.80;99.90;;;;;;4970468;28;20481;-75
2022/06/21 05:34:44;;;;;;;4.90;2.67;;;11.80;99.90;;;;;;4976507;28;20569;-75
2022/06/21 05:37:21;;;;;;;7.82;3.10;;;12.00;99.90;;;;;;4960350;28;20134;-75
2022/06/21 05:39:49;;;;;;;8.98;3.45;;;12.10;99.90;;;;;;4976355;28;20084;-75
2022/06/21 05:42:17;;;;;;;7.88;3.75;;;12.30;99.90;;;;;;4976374;28;20134;-75
2022/06/21 05:44:53;;;;;;;14.02;3.95;;;12.50;99.90;;;;;;4976920;28;20101;-75
2022/06/21 05:47:27;;;;;;;6.50;3.15;;;12.60;99.90;;;;;;4976411;28;20105;-75
2022/06/21 05:49:54;;;;;;;9.38;3.40;;;12.70;99.90;;;;;;4976504;28;20061;-75
2022/06/21 05:52:26;;;;;;;7.88;3.83;;;12.80;99.90;;;;;;4976247;28;20046;-75
2022/06/21 05:55:09;;;;;;;9.43;3.40;;;12.90;99.90;;;;;;4976395;28;20344;-75
2022/06/21 05:57:43;;;;;;;8.40;3.50;;;13.00;99.90;;;;;;4976323;28;20474;-75
2022/06/21 06:00:47;;;;;;;9.43;3.33;;;13.00;99.90;;;;;;4976281;28;20570;-75
2022/06/21 06:03:47;;;;;;;6.70;3.60;;;13.20;99.90;;;;;;4946917;28;20062;-75
2022/06/21 06:06:16;;;;;;;7.68;3.20;;;13.30;99.90;;;;;;4976162;28;20043;-75
2022/06/21 06:08:48;;;;;;;7.35;3.63;;;13.40;99.90;;;;;;4976029;28;20503;-75
2022/06/21 06:11:21;;;;;;;10.50;3.70;;;13.50;99.90;;;;;;4960047;28;20525;-75
2022/06/21 06:13:46;;;;;;;;;;;13.70;99.90;;;;;;4960706;28;20046;-75
2022/06/21 06:16:38;;;;;;;7.03;3.38;;;13.60;99.90;;;;;;4979053;28;20294;-75
2022/06/21 06:19:10;;;;;;;11.45;3.20;;;13.70;99.90;;;;;;4979932;28;20038;-74
2022/06/21 06:21:47;;;;;;;7.63;2.87;;;13.80;99.90;;;;;;4980744;28;20388;-76
2022/06/21 06:24:21;;;;;;;11.68;3.58;;;13.90;99.90;;;;;;4964043;28;20533;-76
2022/06/21 06:26:53;;;;;;;7.45;1.60;;;14.10;99.90;;;;;;4979834;28;20038;-76
2022/06/21 06:29:33;;;;;;;3.95;2.42;;;14.10;99.90;;;;;;4979768;28;20053;-76
2022/06/21 06:32:09;;;;;;;6.13;2.47;;;14.20;99.90;;;;;;4963985;28;20052;-76
2022/06/21 06:34:40;;;;;;;7.68;2.80;;;14.40;99.90;;;;;;4979840;28;20042;-75
2022/06/21 06:37:26;;;;;;;10.85;3.40;;;14.40;99.90;;;;;;4963634;28;20047;-75
2022/06/21 06:39:52;;;;;;;7.05;2.50;;;14.50;99.90;;;;;;4979605;28;20101;-75
2022/06/21 06:42:24;;;;;;;7.90;2.10;;;14.50;99.90;;;;;;4979782;28;20133;-75
2022/06/21 06:45:00;;;;;;;6.43;1.70;;;14.60;99.90;;;;;;4979537;28;20077;-75
2022/06/21 06:47:37;;;;;;;5.25;2.13;;;14.70;99.90;;;;;;4963688;28;20034;-76
2022/06/21 06:50:27;;;;;;;5.63;2.13;;;14.70;99.90;;;;;;4979485;28;20080;-75
2022/06/21 06:52:58;;;;;;;7.28;2.15;;;14.80;99.90;;;;;;4963256;28;20038;-75
2022/06/21 06:55:37;;;;;;;8.20;2.42;;;14.80;99.90;;;;;;4979415;28;20042;-75
2022/06/21 06:58:17;;;;;;;9.38;2.78;;;14.90;99.90;;;;;;4963637;28;20502;-75
2022/06/21 07:00:48;;;;;;;8.15;2.35;;;14.90;99.90;;;;;;4979494;28;20499;-75
2022/06/21 07:03:25;;;;;;;6.60;2.42;;;14.90;99.90;;;;;;4962957;28;20050;-75
2022/06/21 07:06:04;;;;;;;11.25;2.28;;;14.90;99.90;;;;;;4979566;28;20038;-76
2022/06/21 07:08:40;;;;;;;9.95;2.95;;;14.90;99.90;;;;;;4978990;28;20038;-75
2022/06/21 07:11:30;;;;;;;9.18;2.30;;;15.00;99.90;;;;;;4979058;28;20038;-75
2022/06/21 07:13:58;;;;;;;9.60;2.65;;;15.10;99.90;;;;;;4979008;28;20046;-75
2022/06/21 07:16:25;;;;;;;10.85;3.05;;;15.20;99.90;;;;;;4963110;28;20046;-76
2022/06/21 07:18:53;;;;;;;9.55;2.90;;;15.30;99.90;;;;;;4979976;28;20381;-75
2022/06/21 07:21:20;;;;;;;8.52;2.35;;;15.40;99.90;;;;;;4980127;28;20053;-75
2022/06/21 07:23:47;;;;;;;6.80;1.98;;;15.60;99.90;;;;;;4979499;28;20129;-75
2022/06/21 07:26:19;;;;;;;7.47;2.17;;;15.70;99.90;;;;;;4962209;28;20038;-75
2022/06/21 07:28:53;;;;;;;7.65;2.00;;;15.80;99.90;;;;;;4979939;28;20097;-75
2022/06/21 07:31:36;;;;;;;15.50;2.15;;;15.90;99.90;;;;;;4979588;28;20137;-75
2022/06/21 07:34:11;;;;;;;8.38;2.47;;;16.00;99.90;;;;;;4984231;28;20046;-75
2022/06/21 07:36:53;;;;;;;10.57;2.70;;;16.10;99.90;;;;;;4986477;28;20050;-75
2022/06/21 07:39:47;;;;;;;8.05;2.13;;;16.30;99.90;;;;;;4965153;28;20081;-75
2022/06/21 07:42:24;;;;;;;8.73;2.53;;;16.50;99.90;;;;;;4980255;28;20145;-76
2022/06/21 07:44:58;;;;;;;5.53;2.15;;;16.50;99.90;;;;;;4978785;28;20121;-76
2022/06/21 07:47:49;;;;;;;7.13;2.10;;;16.60;99.90;;;;;;4962429;28;20065;-76
2022/06/21 07:50:18;;;;;;;8.35;2.05;;;16.80;99.90;;;;;;4978576;28;20121;-76
2022/06/21 07:52:59;;;;;;;9.50;2.60;;;16.80;99.90;;;;;;4978923;28;20057;-76
2022/06/21 07:55:38;;;;;;;7.88;2.40;;;16.90;99.90;;;;;;4962297;28;20042;-76
2022/06/21 07:58:43;;;;;;;7.45;2.38;;;17.00;99.90;;;;;;4978300;28;20124;-76
2022/06/21 08:07:07;;;;;;;8.35;2.63;;;17.50;99.90;;;;;;4978220;28;20046;-76
2022/06/21 08:09:37;;;;;;;4.47;1.80;;;17.50;99.90;;;;;;4977760;28;20072;-74
2022/06/21 08:12:03;;;;;;;4.10;1.48;;;17.60;99.90;;;;;;4977889;28;20123;-75
2022/06/21 08:14:33;;;;;;;8.45;2.05;;;17.60;99.90;;;;;;4962435;28;20038;-75
2022/06/21 08:17:12;;;;;;;5.55;1.52;;;17.60;99.90;;;;;;4961758;28;20269;-75
2022/06/21 08:19:54;;;;;;;5.03;1.33;;;17.60;99.90;;;;;;4961828;28;20046;-75
2022/06/21 08:22:29;;;;;;;7.60;1.95;;;17.70;99.90;;;;;;4978128;28;20182;-75
2022/06/21 08:25:13;;;;;;;8.77;1.90;;;17.80;99.90;;;;;;4961963;28;20034;-75
2022/06/21 08:27:42;;;;;;;6.75;2.00;;;18.00;99.90;;;;;;4977560;28;20147;-74
2022/06/21 08:30:16;;;;;;;6.95;2.30;;;18.20;99.90;;;;;;4977649;28;20050;-75
2022/06/21 08:32:47;;;;;;;6.07;1.92;;;18.40;99.90;;;;;;4961437;28;20125;-75
2022/06/21 08:35:38;;;;;;;6.88;1.85;;;18.50;99.90;;;;;;4977422;28;20086;-75
2022/06/21 08:38:39;;;;;;;7.50;2.03;;;18.70;99.90;;;;;;4961310;28;20050;-75
2022/06/21 08:44:10;;;;;;;6.38;1.73;;;19.00;99.90;;;;;;4977269;28;20054;-76
2022/06/21 08:46:57;;;;;;;6.13;1.88;;;19.00;99.90;;;;;;4961458;28;20039;-76
2022/06/21 08:49:51;;;;;;;5.75;1.60;;;19.10;99.90;;;;;;4977862;28;20529;-76
2022/06/21 08:52:26;;;;;;;5.57;1.75;;;19.30;99.90;;;;;;4961251;28;20038;-76
2022/06/21 08:55:15;;;;;;;6.05;1.90;;;19.40;99.90;;;;;;4977334;28;20042;-76
2022/06/21 08:58:10;;;;;;;4.00;1.30;;;19.50;99.90;;;;;;4961676;28;20409;-75
2022/06/21 09:00:48;;;;;;;5.40;1.20;;;19.60;99.90;;;;;;4977115;28;20491;-75
2022/06/21 09:03:33;;;;;;;5.43;1.15;;;19.70;99.90;;;;;;4977304;28;20042;-75
2022/06/21 09:06:26;;;;;;;3.50;0.95;;;19.80;99.90;;;;;;4977430;28;20042;-75
2022/06/21 09:09:20;;;;;;;6.28;1.00;;;19.90;99.90;;;;;;4977088;28;20093;-76
2022/06/21 09:12:07;;;;;;;4.47;0.98;;;20.00;99.90;;;;;;4977982;28;20407;-76
2022/06/21 09:15:02;;;;;;;7.25;1.30;;;20.00;99.90;;;;;;4977372;28;20034;-76
2022/06/21 09:17:46;;;;;;;5.45;1.10;;;20.10;99.90;;;;;;4977084;28;20049;-75
2022/06/21 09:20:43;;;;;;;7.63;1.23;;;20.10;99.90;;;;;;4977468;28;20104;-75
2022/06/21 09:23:35;;;;;;;5.32;1.00;;;20.20;99.90;;;;;;4961602;28;20047;-75
2022/06/21 09:26:16;;;;;;;6.43;1.13;;;20.40;98.10;;;;;;4966384;28;20050;-76
2022/06/21 09:28:51;;;;;;;4.90;0.88;;;20.50;99.50;;;;;;4976824;28;20066;-76
2022/06/21 09:31:27;;;;;;;4.28;1.10;;;20.70;98.10;;;;;;4960438;28;20125;-76
2022/06/21 09:34:18;;;;;;;3.10;0.85;;;20.80;99.00;;;;;;4977075;28;20490;-76
2022/06/21 09:37:18;;;;;;;4.15;0.82;;;21.00;94.20;;;;;;4962038;28;20450;-76
2022/06/21 09:40:04;;;;;;;4.18;0.90;;;21.10;93.40;;;;;;4976815;28;20052;-75
2022/06/21 09:42:51;;;;;;;4.78;0.82;;;21.20;91.00;;;;;;4976899;28;20046;-76
2022/06/21 09:45:40;;;;;;;4.95;0.85;;;21.40;92.80;;;;;;4960678;28;20041;-76
2022/06/21 09:48:37;;;;;;;5.97;1.58;;;21.60;90.60;;;;;;4960788;28;20037;-76
2022/06/21 09:51:25;;;;;;;4.68;1.10;;;21.80;88.70;;;;;;4975946;28;20030;-76
2022/06/21 09:53:58;;;;;;;5.38;0.93;;;22.00;90.80;;;;;;4976673;28;20057;-76
2022/06/21 09:56:43;;;;;;;4.85;1.00;;;22.00;92.30;;;;;;4961673;28;20068;-76
2022/06/21 09:59:26;;;;;;;3.78;1.00;;;22.10;90.00;;;;;;4977297;28;20049;-75
2022/06/21 10:01:58;;;;;;;;;;;22.20;82.10;;;;;;4978332;28;20030;-76
2022/06/21 10:04:37;;;;;;;5.80;1.23;;;22.30;90.50;;;;;;4977186;28;19924;-76
2022/06/21 10:07:22;;;;;;;6.18;1.17;;;22.50;92.00;;;;;;4977098;28;20070;-76
2022/06/21 10:10:22;;;;;;;3.88;0.60;;;22.70;78.70;;;;;;4960444;28;20084;-73
2022/06/21 10:13:21;;;;;;;2.85;0.80;;;22.80;76.70;;;;;;4976442;28;20403;-72
2022/06/21 10:15:56;;;;;;;4.43;0.98;;;22.90;74.10;;;;;;4976273;28;20053;-72
2022/06/21 10:18:44;;;;;;;5.38;0.82;;;23.00;78.20;;;;;;4975998;28;20525;-72
2022/06/21 10:21:37;;;;;;;3.30;0.80;;;23.20;64.20;;;;;;4976262;28;20145;-72
2022/06/21 10:24:18;;;;;;;3.88;1.15;;;23.30;65.30;;;;;;4975960;28;20046;-72
2022/06/21 10:27:02;;;;;;;3.92;1.20;;;23.20;64.60;;;;;;4976775;28;20070;-73
2022/06/21 10:29:53;;;;;;;3.97;0.98;;;23.20;67.70;;;;;;4975884;28;20092;-72
2022/06/21 10:32:44;;;;;;;5.05;1.20;;;23.30;65.50;;;;;;4976046;28;20038;-73
2022/06/21 10:35:40;;;;;;;3.47;0.52;;;23.30;65.10;;;;;;4975972;28;20054;-73
2022/06/21 10:38:41;;;;;;;3.72;0.70;;;23.40;64.40;;;;;;4975911;28;20042;-72
2022/06/21 10:41:34;;;;;;;2.30;0.70;;;23.20;58.10;;;;;;4975829;28;20509;-72
2022/06/21 10:44:25;;;;;;;3.90;1.08;;;23.10;57.40;;;;;;4976035;28;20078;-72
2022/06/21 10:46:57;;;;;;;3.58;0.85;;;23.20;59.50;;;;;;4975854;28;20042;-72
2022/06/21 10:49:29;;;;;;;2.95;0.70;;;23.40;67.10;;;;;;4976059;28;20034;-72
2022/06/21 10:51:57;;;;;;;4.25;0.60;;;23.50;63.70;;;;;;4976316;28;20096;-72
2022/06/21 10:54:47;;;;;;;6.07;0.88;;;23.70;59.50;;;;;;4959751;28;20046;-72
2022/06/21 10:57:21;;;;;;;3.25;0.65;;;23.70;55.80;;;;;;4975725;28;20557;-72
2022/06/21 11:02:54;;;;;;;6.38;0.80;;;23.60;58.80;;;;;;4979054;28;20046;-73
2022/06/21 11:05:44;;;;;;;1.88;0.75;;;23.70;60.30;;;;;;4979147;28;20042;-76
2022/06/21 11:08:26;;;;;;;4.07;0.73;;;23.90;61.00;;;;;;4978753;28;20045;-77
2022/06/21 11:10:57;;;;;;;5.10;0.98;;;24.10;61.30;;;;;;4962897;28;20073;-77
2022/06/21 11:13:31;;;;;;;10.48;0.80;;;24.20;59.20;;;;;;4979314;28;20064;-77
2022/06/21 11:16:13;;;;;;;2.63;0.75;;;24.20;57.70;;;;;;4962859;28;20096;-77
2022/06/21 11:18:47;;;;;;;6.10;0.90;;;24.30;58.30;;;;;;4979616;28;20046;-77
2022/06/21 11:21:41;;;;;;;5.47;1.00;;;24.30;58.00;;;;;;4978793;28;20096;-77
2022/06/21 11:24:46;;;;;;;3.38;0.60;;;24.40;56.80;;;;;;4978976;28;20042;-77
2022/06/21 11:27:33;;;;;;;4.97;0.93;;;24.60;53.30;;;;;;4942973;28;20498;-77
2022/06/21 11:30:12;;;;;;;3.92;0.73;;;24.60;52.80;;;;;;4962420;28;20124;-77
2022/06/21 11:33:05;;;;;;;6.50;0.85;;;24.70;55.20;;;;;;4978721;28;20129;-73
2022/06/21 11:36:11;;;;;;;3.60;0.63;;;24.90;56.80;;;;;;4978906;28;20082;-72
2022/06/21 11:38:42;;;;;;;4.60;0.80;;;25.00;53.60;;;;;;4971888;28;20069;-73
2022/06/21 11:44:47;;;;;;;4.28;0.95;;;25.20;55.40;;;;;;4979650;28;20054;-70
2022/06/21 11:47:38;;;;;;;4.50;0.68;;;25.20;54.70;;;;;;4963377;28;20038;-71
2022/06/21 11:50:20;;;;;;;2.67;0.52;;;25.40;53.00;;;;;;4978676;28;20537;-70
2022/06/21 11:53:05;;;;;;;;;;;25.40;52.40;;;;;;4978835;28;20034;-71
2022/06/21 11:55:40;;;;;;;2.28;0.60;;;25.30;52.10;;;;;;4962212;28;19922;-70
2022/06/21 11:58:21;;;;;;;4.40;0.80;;;25.40;54.60;;;;;;4961933;28;20038;-69
2022/06/21 12:01:20;;;;;;;6.80;1.13;;;25.60;53.40;;;;;;4978398;28;20038;-70
2022/06/21 12:04:21;;;;;;;3.58;0.80;;;25.80;54.40;;;;;;4962231;28;20042;-71
2022/06/21 12:06:52;;;;;;;3.58;0.77;;;25.90;51.40;;;;;;4978457;28;20034;-71
2022/06/21 12:09:55;;;;;;;3.63;0.80;;;25.70;53.80;;;;;;4978113;28;20042;-70
2022/06/21 12:12:30;;;;;;;3.50;0.68;;;25.80;51.90;;;;;;4961288;28;20043;-70
2022/06/21 12:14:59;;;;;;;3.38;0.80;;;26.00;53.90;;;;;;4977891;28;20052;-71
2022/06/21 12:18:00;;;;;;;2.83;0.75;;;26.20;54.30;;;;;;4978181;28;20046;-70
2022/06/21 12:20:34;;;;;;;4.95;0.73;;;26.40;55.40;;;;;;4978350;28;20046;-70
2022/06/21 12:23:27;;;;;;;4.68;0.95;;;26.70;51.60;;;;;;4977756;28;20080;-70
2022/06/21 12:25:54;;;;;;;3.53;0.90;;;26.70;53.00;;;;;;4977732;28;20038;-70
2022/06/21 12:28:25;;;;;;;3.55;0.65;;;26.80;53.90;;;;;;4961491;28;20038;-70
2022/06/21 12:30:52;;;;;;;2.78;0.70;;;26.90;52.50;;;;;;4977630;28;20490;-70
2022/06/21 12:33:23;;;;;;;3.20;0.82;;;27.00;52.20;;;;;;4977792;28;20050;-70
2022/06/21 12:36:13;;;;;;;1.88;0.70;;;26.90;50.90;;;;;;4977548;28;20073;-70
2022/06/21 12:38:49;;;;;;;3.17;0.60;;;26.60;49.10;;;;;;4977656;28;20075;-70
2022/06/21 12:41:26;;;;;;;2.83;0.63;;;26.20;51.20;;;;;;4961374;28;20038;-71
2022/06/21 12:44:19;;;;;;;5.32;0.75;;;26.00;50.70;;;;;;4977276;28;20121;-71
2022/06/21 12:47:04;;;;;;;;;;;25.80;51.10;;;;;;4977792;28;20045;-70
2022/06/21 12:50:07;;;;;;;3.20;0.63;;;25.40;52.70;;;;;;4977728;28;19921;-69
2022/06/21 12:52:55;;;;;;;6.85;0.80;;;25.30;52.10;;;;;;4977447;28;20490;-70
2022/06/21 12:55:40;;;;;;;2.25;0.73;;;25.10;53.70;;;;;;4961680;28;20077;-70
2022/06/21 12:58:29;;;;;;;2.85;0.88;;;25.10;52.30;;;;;;4977041;28;20054;-70
2022/06/21 13:01:00;;;;;;;4.03;0.73;;;25.20;54.00;;;;;;4961307;28;20503;-70
2022/06/21 13:04:04;;;;;;;3.22;0.50;;;25.30;53.40;;;;;;4977411;28;20047;-72
2022/06/21 13:06:55;;;;;;;3.03;0.90;;;25.50;52.80;;;;;;4977289;28;20034;-71
2022/06/21 13:09:43;;;;;;;4.28;0.75;;;25.60;54.20;;;;;;4976704;28;20070;-70
2022/06/21 13:12:47;;;;;;;3.45;0.75;;;25.80;53.80;;;;;;4977002;28;20088;-71
2022/06/21 13:15:42;;;;;;;5.72;0.88;;;26.00;53.40;;;;;;4976926;28;20483;-71
2022/06/21 13:18:17;;;;;;;4.15;0.80;;;26.20;54.00;;;;;;4976817;28;20482;-71
2022/06/21 13:21:18;;;;;;;2.67;0.75;;;26.10;51.30;;;;;;4976791;28;20089;-71
2022/06/21 13:24:12;;;;;;;2.97;0.80;;;26.10;50.00;;;;;;4976568;28;20053;-71
2022/06/21 13:27:15;;;;;;;5.97;0.85;;;26.20;54.30;;;;;;4977039;28;20042;-71
2022/06/21 13:30:11;;;;;;;5.50;0.80;;;26.40;51.30;;;;;;4976823;28;20129;-70
2022/06/21 13:33:14;;;;;;;5.43;1.10;;;26.50;52.90;;;;;;4970141;28;20054;-71
2022/06/21 13:36:01;;;;;;;2.78;0.63;;;26.50;49.70;;;;;;4976559;28;20107;-72
2022/06/21 13:38:57;;;;;;;2.55;0.60;;;26.70;49.10;;;;;;4976758;28;20035;-71
2022/06/21 13:44:50;;;;;;;2.60;0.70;;;26.80;50.50;;;;;;4976646;28;20054;-70
2022/06/21 13:47:29;;;;;;;4.65;1.13;;;26.80;50.00;;;;;;4976365;28;20418;-71
2022/06/21 13:50:04;;;;;;;3.85;0.98;;;26.90;49.00;;;;;;4960396;28;20046;-70
2022/06/21 13:52:39;;;;;;;5.70;0.90;;;27.00;52.30;;;;;;4976255;28;20038;-71
2022/06/21 13:55:22;;;;;;;4.80;0.90;;;27.00;50.30;;;;;;4976555;28;20495;-71
2022/06/21 13:58:15;;;;;;;1.80;0.65;;;26.80;50.60;;;;;;4976243;28;20031;-70
2022/06/21 14:01:06;;;;;;;2.45;0.70;;;26.80;49.90;;;;;;4976510;28;20038;-71
2022/06/21 14:03:44;;;;;;;3.30;0.80;;;26.70;50.40;;;;;;4960449;28;20039;-71
2022/06/21 14:06:24;;;;;;;2.00;0.57;;;26.60;51.30;;;;;;4976205;28;20092;-71
2022/06/21 14:09:15;;;;;;;3.13;0.90;;;26.70;52.40;;;;;;4975961;28;20506;-70